To NAV CANADA Home Page Login to a new session Search on AWWS site Feedback and Comments Disclaimer Vers la page française équivalente Tips FAQ What's new on the site To the Forecasts and Observations / NOTAM section To "File a Flight Plan" website Publications and other links Update of the User's profile FIC Telephone Numbers My Weather Data Folder Route Weather Data Regional Weather Data Local Weather Data To the Forecasts and Observations / NOTAM section
Request Generated 07/28/2016 at 04:48:52 UTC . Weather information available at that time is displayed.

METAR/TAF

SLAVE LAKE/AB    (show WxCam)

SPECI CYZH 280438Z AUTO 19005KT 1 1/2SM HZ CLR 20/13 A3009 RMK SLP193
DENSITY ALT 2700FT=
SPECI CYZH 280428Z AUTO 18005KT 1 1/4SM HZ CLR 20/13 A3009 RMK SLP193
DENSITY ALT 2700FT=
SPECI CYZH 280411Z AUTO 17005KT 2 1/4SM HZ CLR 21/14 A3009 RMK SLP193
DENSITY ALT 2800FT=
SPECI CYZH 280404Z AUTO 18005KT 2 1/2SM HZ CLR 21/14 A3009 RMK SLP193
DENSITY ALT 2800FT=
METAR CYZH 280400Z AUTO 18005KT 3SM HZ CLR 21/14 A3009 RMK SLP193
DENSITY ALT 2800FT=
SPECI CYZH 280351Z AUTO 18005KT 5SM HZ CLR 22/15 A3009 RMK SLP192
DENSITY ALT 2900FT=
METAR CYZH 280300Z AUTO VRB02KT 7SM CLR 22/14 A3008 RMK SLP189
DENSITY ALT 2900FT=
METAR CYZH 280200Z AUTO 00000KT 7SM CLR 25/13 A3008 RMK SLP190
DENSITY ALT 3200FT=

TAF AMD CYZH 280426Z 2804/2813 17005KT P6SM SCT080
RMK FCST BASED ON AUTO OBS. AUTO OBS REP NON-REPRESENTATIVE VIS.
NXT FCST BY 280700Z=
Your time UTC time
Weather data provided by Environment Canada and NAV CANADA